Time;durP1;ratioP1;P1;durP2;ratioP2;P2;SDS_P1;SDS_P2;PMS_P1;PMS_P2;Temp;Humidity;BMP_temperature;BMP_pressure;BME280_temperature;BME280_humidity;BME280_pressure;Samples;Min_cycle;Max_cycle;Signal;HPM_P1;HPM_P2
2021/09/16 00:01:13;;;;;;;2.42;1.17;;;17.30;95.90;;;;;;5038323;28;20029;-86
2021/09/16 00:03:38;;;;;;;5.40;1.25;;;17.20;95.90;;;;;;5055912;28;20029;-86
2021/09/16 00:06:04;;;;;;;3.78;1.60;;;17.20;95.70;;;;;;5021908;28;20108;-87
2021/09/16 00:08:29;;;;;;;4.53;1.13;;;17.10;95.50;;;;;;5021195;28;20087;-86
2021/09/16 00:10:55;;;;;;;3.47;1.05;;;17.10;95.70;;;;;;5038163;28;20045;-86
2021/09/16 00:13:21;;;;;;;3.42;1.20;;;17.00;95.70;;;;;;5021816;28;20033;-86
2021/09/16 00:15:46;;;;;;;6.90;1.98;;;17.00;95.90;;;;;;5038196;28;20036;-86
2021/09/16 00:18:12;;;;;;;3.13;1.30;;;17.00;95.90;;;;;;5021969;28;20025;-86
2021/09/16 00:20:38;;;;;;;4.22;1.30;;;16.90;96.40;;;;;;5021616;28;20055;-87
2021/09/16 00:23:03;;;;;;;2.72;1.15;;;17.00;96.40;;;;;;5003102;28;20029;-87
2021/09/16 00:25:29;;;;;;;5.13;1.20;;;16.90;96.70;;;;;;5037893;28;20025;-87
2021/09/16 00:27:55;;;;;;;3.60;1.25;;;16.90;96.30;;;;;;5038115;28;20100;-86
2021/09/16 00:30:21;;;;;;;4.60;1.63;;;16.90;96.10;;;;;;5003917;28;20056;-86
2021/09/16 00:32:46;;;;;;;2.60;1.27;;;16.90;96.60;;;;;;5038234;28;20029;-86
2021/09/16 00:35:12;;;;;;;6.25;1.92;;;16.90;96.30;;;;;;5037442;28;20025;-86
2021/09/16 00:37:38;;;;;;;4.38;1.35;;;16.80;96.50;;;;;;5023636;28;20425;-87
2021/09/16 00:40:05;;;;;;;3.97;1.30;;;16.80;96.90;;;;;;5049538;28;20036;-86
2021/09/16 00:42:31;;;;;;;5.03;1.40;;;16.80;96.90;;;;;;5017486;28;20114;-86
2021/09/16 00:44:57;;;;;;;4.45;1.40;;;16.80;96.50;;;;;;5014200;28;20063;-86
2021/09/16 00:47:22;;;;;;;7.75;1.55;;;16.70;96.40;;;;;;5037281;28;20369;-86
2021/09/16 00:49:49;;;;;;;7.47;1.63;;;16.70;96.80;;;;;;5038057;28;20025;-86
2021/09/16 00:52:16;;;;;;;3.20;1.45;;;16.70;97.10;;;;;;5037308;28;20181;-86
2021/09/16 00:54:46;;;;;;;2.85;1.15;;;16.70;96.60;;;;;;5036594;28;20025;-85
2021/09/16 00:57:14;;;;;;;2.90;1.15;;;16.70;96.40;;;;;;5037453;28;20021;-86
2021/09/16 00:59:40;;;;;;;2.65;1.13;;;16.70;96.30;;;;;;5036727;28;20025;-86
2021/09/16 01:02:06;;;;;;;4.43;1.55;;;16.60;96.20;;;;;;5037606;28;20044;-87
2021/09/16 01:04:32;;;;;;;4.03;1.50;;;16.70;96.20;;;;;;5037195;28;20374;-86
2021/09/16 01:06:58;;;;;;;5.68;1.48;;;16.70;96.00;;;;;;5036862;28;20044;-86
2021/09/16 01:09:27;;;;;;;5.45;1.73;;;16.60;96.00;;;;;;5020556;28;20029;-87
2021/09/16 01:11:53;;;;;;;5.28;1.30;;;16.60;95.80;;;;;;5020676;28;20028;-86
2021/09/16 01:14:27;;;;;;;4.05;1.55;;;16.60;96.10;;;;;;5023591;28;20111;-86
2021/09/16 01:16:53;;;;;;;4.30;1.30;;;16.60;96.10;;;;;;5037494;28;20019;-85
2021/09/16 01:19:20;;;;;;;3.63;1.55;;;16.50;96.10;;;;;;5072259;28;20035;-86
2021/09/16 01:21:47;;;;;;;7.00;1.70;;;16.60;96.00;;;;;;5060516;28;20044;-89
2021/09/16 01:24:12;;;;;;;4.00;1.40;;;16.50;96.10;;;;;;5060683;28;20005;-90
2021/09/16 01:26:39;;;;;;;6.78;1.60;;;16.50;96.10;;;;;;5060455;28;20088;-92
2021/09/16 01:29:05;;;;;;;3.50;1.35;;;16.50;96.20;;;;;;5060560;28;20036;-89
2021/09/16 01:31:42;;;;;;;4.18;1.20;;;16.50;96.30;;;;;;5060346;28;20009;-92
2021/09/16 01:34:10;;;;;;;5.43;1.85;;;16.50;96.40;;;;;;5059474;28;20013;-89
2021/09/16 01:36:38;;;;;;;2.90;1.40;;;16.40;96.50;;;;;;5053086;28;20137;-86
2021/09/16 01:39:06;;;;;;;6.85;1.98;;;16.50;96.50;;;;;;5054998;28;20075;-87
2021/09/16 01:41:32;;;;;;;4.18;1.30;;;16.50;96.60;;;;;;5054988;28;20045;-86
2021/09/16 01:43:58;;;;;;;3.17;1.33;;;16.40;96.40;;;;;;5037065;28;20351;-86
2021/09/16 01:46:24;;;;;;;3.80;1.70;;;16.50;96.60;;;;;;5054598;28;20048;-87
2021/09/16 01:48:50;;;;;;;4.82;1.60;;;16.40;96.50;;;;;;5020834;28;20143;-86
2021/09/16 01:51:16;;;;;;;5.20;1.50;;;16.40;96.60;;;;;;5020437;28;20025;-86
2021/09/16 01:53:42;;;;;;;3.28;1.50;;;16.40;96.60;;;;;;5035964;28;20040;-85
2021/09/16 01:56:08;;;;;;;5.70;1.73;;;16.40;96.50;;;;;;5041350;28;20041;-86
2021/09/16 01:58:36;;;;;;;6.00;1.70;;;16.40;96.50;;;;;;5047633;28;20025;-87
2021/09/16 02:01:02;;;;;;;2.97;1.27;;;16.40;96.70;;;;;;5036964;28;20021;-87
2021/09/16 02:03:28;;;;;;;4.38;1.60;;;16.40;96.60;;;;;;5036428;28;20021;-86
2021/09/16 02:05:53;;;;;;;6.15;1.80;;;16.40;96.70;;;;;;5036370;28;20446;-86
2021/09/16 02:08:19;;;;;;;2.35;1.35;;;16.40;96.60;;;;;;5053625;28;20132;-87
2021/09/16 02:10:45;;;;;;;3.53;1.60;;;16.40;96.80;;;;;;5035152;28;20119;-85
2021/09/16 02:13:10;;;;;;;4.63;1.98;;;16.30;96.70;;;;;;5019753;28;20036;-87
2021/09/16 02:15:36;;;;;;;3.53;1.58;;;16.40;96.70;;;;;;5019555;28;20135;-85
2021/09/16 02:18:01;;;;;;;3.92;1.50;;;16.30;96.70;;;;;;5019568;28;20058;-86
2021/09/16 02:20:27;;;;;;;6.38;1.65;;;16.30;96.70;;;;;;5019559;28;20071;-89
2021/09/16 02:22:53;;;;;;;5.25;1.90;;;16.30;96.60;;;;;;5019010;28;20060;-86
2021/09/16 02:25:18;;;;;;;4.10;1.80;;;16.20;96.70;;;;;;5036152;28;20029;-86
2021/09/16 02:27:44;;;;;;;4.78;1.92;;;16.30;96.70;;;;;;5035788;28;20389;-86
2021/09/16 02:30:10;;;;;;;3.97;1.80;;;16.30;96.60;;;;;;5037856;28;20370;-86
2021/09/16 02:32:36;;;;;;;3.50;1.70;;;16.20;96.70;;;;;;5036145;28;20060;-86
2021/09/16 02:35:01;;;;;;;7.63;2.17;;;16.20;96.80;;;;;;5053694;28;20040;-86
2021/09/16 02:37:27;;;;;;;4.18;1.80;;;16.20;96.70;;;;;;5047918;28;20029;-86
2021/09/16 02:39:53;;;;;;;5.78;2.10;;;16.20;96.80;;;;;;5035974;28;20115;-86
2021/09/16 02:42:18;;;;;;;5.97;2.17;;;16.20;96.80;;;;;;5018911;28;20124;-86
2021/09/16 02:44:44;;;;;;;6.70;2.10;;;16.10;96.70;;;;;;5025487;28;20025;-86
2021/09/16 02:47:10;;;;;;;5.03;2.13;;;16.10;96.80;;;;;;5035543;28;20044;-86
2021/09/16 02:49:35;;;;;;;3.70;1.83;;;16.10;97.00;;;;;;5035441;28;20033;-86
2021/09/16 02:52:01;;;;;;;6.95;2.10;;;16.10;97.20;;;;;;5019260;28;20120;-86
2021/09/16 02:54:27;;;;;;;5.47;2.10;;;16.00;97.60;;;;;;5034572;28;20056;-86
2021/09/16 02:56:52;;;;;;;4.15;1.92;;;16.00;97.60;;;;;;5019448;28;20488;-86
2021/09/16 02:59:18;;;;;;;3.90;2.00;;;16.00;97.80;;;;;;5030273;28;20043;-87
2021/09/16 03:01:44;;;;;;;5.32;2.10;;;16.10;97.70;;;;;;5019257;28;20025;-87
2021/09/16 03:04:10;;;;;;;3.70;1.58;;;16.10;97.50;;;;;;5019287;28;20021;-86
2021/09/16 03:06:35;;;;;;;4.18;1.98;;;16.10;97.50;;;;;;5053327;28;20044;-86
2021/09/16 03:09:01;;;;;;;5.97;1.70;;;16.10;97.30;;;;;;5035214;28;20044;-86
2021/09/16 03:11:27;;;;;;;6.13;2.40;;;16.00;97.30;;;;;;5017617;28;20398;-86
2021/09/16 03:13:53;;;;;;;4.25;2.00;;;16.00;97.10;;;;;;5035544;28;20515;-86
2021/09/16 03:16:18;;;;;;;5.45;2.08;;;16.00;97.20;;;;;;5035769;28;20100;-86
2021/09/16 03:18:44;;;;;;;7.85;2.25;;;16.00;97.20;;;;;;5039304;28;20036;-87
2021/09/16 03:21:09;;;;;;;5.03;1.90;;;16.00;97.30;;;;;;5019995;28;20473;-86
2021/09/16 03:23:35;;;;;;;5.10;1.90;;;16.00;97.20;;;;;;5039112;28;20078;-86
2021/09/16 03:26:01;;;;;;;8.40;2.25;;;15.90;97.30;;;;;;5023120;28;20366;-86
2021/09/16 03:28:26;;;;;;;5.80;2.08;;;16.00;97.30;;;;;;5022870;28;20114;-86
2021/09/16 03:30:52;;;;;;;4.90;1.90;;;16.00;97.40;;;;;;5015697;28;20025;-87
2021/09/16 03:33:18;;;;;;;5.40;2.25;;;16.00;97.30;;;;;;5032214;28;20033;-86
2021/09/16 03:35:43;;;;;;;4.57;2.10;;;16.00;97.40;;;;;;5038934;28;20378;-87
2021/09/16 03:38:09;;;;;;;5.68;2.45;;;16.00;97.40;;;;;;5039203;28;20064;-86
2021/09/16 03:40:35;;;;;;;4.35;1.83;;;16.00;97.40;;;;;;5039030;28;20052;-87
2021/09/16 03:43:00;;;;;;;5.38;1.98;;;15.90;97.40;;;;;;5022646;28;20104;-87
2021/09/16 03:45:26;;;;;;;5.47;2.33;;;16.00;97.50;;;;;;5037855;28;20080;-86
2021/09/16 03:47:52;;;;;;;4.78;2.53;;;16.00;97.50;;;;;;5036339;28;20355;-86
2021/09/16 03:50:17;;;;;;;3.63;1.90;;;16.00;97.60;;;;;;5038505;28;20055;-86
2021/09/16 03:52:43;;;;;;;5.30;1.77;;;16.00;97.60;;;;;;5037784;28;20439;-87
2021/09/16 03:55:09;;;;;;;5.05;1.83;;;16.00;97.60;;;;;;5038610;28;20036;-87
2021/09/16 03:57:35;;;;;;;4.20;1.73;;;16.00;97.60;;;;;;5022221;28;20192;-87
2021/09/16 04:00:01;;;;;;;3.90;1.90;;;16.00;97.70;;;;;;5022308;28;20053;-86
2021/09/16 04:02:26;;;;;;;5.50;1.65;;;16.00;97.70;;;;;;5022238;28;20093;-90
2021/09/16 04:04:52;;;;;;;3.63;1.70;;;16.00;97.70;;;;;;5038722;28;20078;-85
2021/09/16 04:07:18;;;;;;;4.07;2.10;;;16.00;97.70;;;;;;5037983;28;20060;-88
2021/09/16 04:09:43;;;;;;;5.90;2.10;;;16.00;97.70;;;;;;5037945;28;20029;-86
2021/09/16 04:12:09;;;;;;;3.22;1.88;;;16.00;97.80;;;;;;5038269;28;20052;-86
2021/09/16 04:14:35;;;;;;;3.95;1.88;;;16.00;97.80;;;;;;5038038;28;20389;-86
2021/09/16 04:17:00;;;;;;;4.70;1.80;;;16.00;97.80;;;;;;5021303;28;20031;-86
2021/09/16 04:19:26;;;;;;;3.85;1.85;;;16.00;97.80;;;;;;5047580;28;20116;-86
2021/09/16 04:21:52;;;;;;;5.53;2.17;;;16.00;97.80;;;;;;5031755;28;20531;-85
2021/09/16 04:24:17;;;;;;;7.15;2.03;;;16.00;97.90;;;;;;5041099;28;20051;-87
2021/09/16 04:26:44;;;;;;;4.88;1.80;;;16.00;97.90;;;;;;5021871;28;20029;-85
2021/09/16 04:29:10;;;;;;;4.60;1.85;;;15.90;97.90;;;;;;5037996;28;20061;-86
2021/09/16 04:31:36;;;;;;;6.65;1.80;;;15.90;98.00;;;;;;5037948;28;20477;-86
2021/09/16 04:34:02;;;;;;;6.72;2.38;;;15.90;98.10;;;;;;5019578;28;20021;-85
2021/09/16 04:36:28;;;;;;;6.10;1.65;;;15.90;98.10;;;;;;5035656;28;20369;-86
2021/09/16 04:38:53;;;;;;;4.80;1.63;;;15.90;98.20;;;;;;5037401;28;20386;-86
2021/09/16 04:41:19;;;;;;;5.00;1.58;;;15.90;98.30;;;;;;5037775;28;20033;-86
2021/09/16 04:43:45;;;;;;;4.20;1.60;;;15.90;98.30;;;;;;5020951;28;20542;-85
2021/09/16 04:46:10;;;;;;;3.78;1.70;;;15.90;98.30;;;;;;5013743;28;20033;-86
2021/09/16 04:48:36;;;;;;;4.07;1.75;;;15.90;98.30;;;;;;5028150;28;20029;-86
2021/09/16 04:51:02;;;;;;;5.68;1.50;;;15.90;98.30;;;;;;5055084;28;20484;-86
2021/09/16 04:53:27;;;;;;;5.18;2.15;;;15.90;98.40;;;;;;5037060;28;20492;-85
2021/09/16 04:55:53;;;;;;;6.43;1.70;;;15.90;98.40;;;;;;5039371;28;20056;-85
2021/09/16 04:58:19;;;;;;;3.60;1.42;;;16.00;98.50;;;;;;5042053;28;20029;-86
2021/09/16 05:00:44;;;;;;;5.07;1.60;;;16.00;98.50;;;;;;5055133;28;20009;-91
2021/09/16 05:03:10;;;;;;;5.07;1.58;;;16.00;98.40;;;;;;5079906;28;20009;-87
2021/09/16 05:05:36;;;;;;;5.13;1.63;;;16.00;98.40;;;;;;5061483;28;20093;-89
2021/09/16 05:08:02;;;;;;;4.10;1.33;;;16.00;98.30;;;;;;5061217;28;20045;-86
2021/09/16 05:10:27;;;;;;;4.82;1.52;;;15.90;98.30;;;;;;5048484;28;20052;-85
2021/09/16 05:12:53;;;;;;;2.80;1.30;;;16.00;98.40;;;;;;5060629;28;20064;-91
2021/09/16 05:15:19;;;;;;;4.32;1.45;;;15.90;98.40;;;;;;5058835;28;20032;-86
2021/09/16 05:21:31;;;;;;;3.00;1.30;;;15.90;98.40;;;;;;5013230;28;20060;-88
2021/09/16 05:23:57;;;;;;;2.60;1.33;;;15.90;98.20;;;;;;5004688;28;20022;-88
2021/09/16 05:26:23;;;;;;;3.63;1.20;;;15.90;98.30;;;;;;4985403;28;20018;-89
2021/09/16 05:28:49;;;;;;;3.30;1.50;;;15.90;98.40;;;;;;5000554;28;20049;-89
2021/09/16 05:31:15;;;;;;;4.18;1.08;;;15.90;98.40;;;;;;4993505;28;20028;-88
2021/09/16 05:33:41;;;;;;;4.43;1.50;;;15.90;98.20;;;;;;4992437;28;20030;-88
2021/09/16 05:36:06;;;;;;;3.10;1.20;;;15.90;98.30;;;;;;4978967;28;20468;-89
2021/09/16 05:38:32;;;;;;;3.67;1.25;;;15.90;98.30;;;;;;4990605;28;20411;-87
2021/09/16 05:40:58;;;;;;;3.50;1.30;;;15.90;98.20;;;;;;5001003;28;20022;-88
2021/09/16 05:43:24;;;;;;;2.63;1.10;;;15.90;98.20;;;;;;4995125;28;20029;-89
2021/09/16 05:45:50;;;;;;;3.63;1.10;;;15.90;98.30;;;;;;4996659;28;20026;-88
2021/09/16 05:48:16;;;;;;;3.08;1.15;;;15.90;98.20;;;;;;5026791;28;20022;-88
2021/09/16 05:50:50;;;;;;;3.67;1.58;;;15.90;98.30;;;;;;4996990;28;20088;-88
2021/09/16 05:53:16;;;;;;;4.85;1.27;;;15.90;98.20;;;;;;5037064;28;20021;-90
2021/09/16 05:55:42;;;;;;;4.47;1.45;;;15.90;98.30;;;;;;5020200;28;20056;-88
2021/09/16 05:58:07;;;;;;;3.08;1.38;;;15.90;98.20;;;;;;5021779;28;20041;-88
2021/09/16 06:00:34;;;;;;;4.20;1.40;;;15.90;98.20;;;;;;4995261;28;20157;-87
2021/09/16 06:02:59;;;;;;;4.78;1.40;;;15.90;98.20;;;;;;5008834;28;20068;-87
2021/09/16 06:05:25;;;;;;;3.03;1.10;;;15.90;98.40;;;;;;4995553;28;20101;-88
2021/09/16 06:07:51;;;;;;;3.58;1.30;;;15.90;98.20;;;;;;5006176;28;20040;-88
2021/09/16 06:10:44;;;;;;;3.55;1.45;;;15.90;98.30;;;;;;4995713;28;20061;-87
2021/09/16 06:13:10;;;;;;;2.60;1.40;;;15.80;98.20;;;;;;5008022;28;20057;-88
2021/09/16 06:15:36;;;;;;;2.90;1.05;;;15.80;98.20;;;;;;4994065;28;20022;-87
2021/09/16 06:18:02;;;;;;;4.28;1.20;;;15.90;98.10;;;;;;5005845;28;20025;-87
2021/09/16 06:20:28;;;;;;;2.97;1.17;;;15.80;98.20;;;;;;4995056;28;20083;-87
2021/09/16 06:22:54;;;;;;;4.70;1.20;;;15.80;98.20;;;;;;4996020;28;20048;-87
2021/09/16 06:25:20;;;;;;;3.75;1.70;;;15.80;98.30;;;;;;4998354;28;20041;-87
2021/09/16 06:27:45;;;;;;;3.65;1.20;;;15.80;98.10;;;;;;5015678;28;20506;-87
2021/09/16 06:30:12;;;;;;;2.38;1.20;;;15.80;98.20;;;;;;4986129;28;20165;-87
2021/09/16 06:32:38;;;;;;;8.15;1.30;;;15.80;98.20;;;;;;4999387;28;20087;-86
2021/09/16 06:35:09;;;;;;;3.33;1.23;;;15.80;98.10;;;;;;5014940;28;20022;-87
2021/09/16 06:37:35;;;;;;;4.35;1.70;;;15.80;98.20;;;;;;5014796;28;20018;-88
2021/09/16 06:40:01;;;;;;;3.17;1.50;;;15.80;98.10;;;;;;5014803;28;20037;-87
2021/09/16 06:42:27;;;;;;;4.32;1.38;;;15.80;98.30;;;;;;4982929;28;20030;-87
2021/09/16 06:44:53;;;;;;;4.00;1.33;;;15.80;98.40;;;;;;4979868;28;20561;-88
2021/09/16 06:47:19;;;;;;;4.53;1.50;;;15.80;98.50;;;;;;4958607;28;20034;-87
2021/09/16 06:49:48;;;;;;;3.45;1.35;;;15.90;98.50;;;;;;4981472;28;20453;-87
2021/09/16 06:52:16;;;;;;;3.17;1.20;;;15.90;98.60;;;;;;5007380;28;20475;-88
2021/09/16 06:54:43;;;;;;;2.42;1.20;;;15.90;98.60;;;;;;5011365;28;20037;-87
2021/09/16 06:57:31;;;;;;;3.33;1.45;;;16.00;98.60;;;;;;5013443;28;20040;-87
2021/09/16 06:59:57;;;;;;;3.92;1.42;;;16.00;98.50;;;;;;4988221;28;20053;-87
2021/09/16 07:02:25;;;;;;;3.45;1.95;;;16.00;98.50;;;;;;5009917;28;20072;-87
2021/09/16 07:04:51;;;;;;;1.88;1.20;;;16.10;98.70;;;;;;4963408;28;20054;-88
2021/09/16 07:07:18;;;;;;;6.75;1.50;;;16.10;98.70;;;;;;4999093;28;20391;-86
2021/09/16 07:09:43;;;;;;;5.28;2.08;;;16.10;98.70;;;;;;4987124;28;20155;-88
2021/09/16 07:12:10;;;;;;;4.60;2.10;;;16.20;98.60;;;;;;5007974;28;20025;-87
2021/09/16 07:14:36;;;;;;;4.03;1.80;;;16.20;98.70;;;;;;4984342;28;20026;-88
2021/09/16 07:17:02;;;;;;;5.13;1.70;;;16.30;98.70;;;;;;4983583;28;20364;-88
2021/09/16 07:19:28;;;;;;;3.72;1.58;;;16.30;98.70;;;;;;4999625;28;20050;-86
2021/09/16 07:21:55;;;;;;;5.90;1.95;;;16.30;98.70;;;;;;4989118;28;20028;-88
2021/09/16 07:24:21;;;;;;;4.60;1.60;;;16.30;98.60;;;;;;5021316;28;20490;-86
2021/09/16 07:26:50;;;;;;;4.78;1.70;;;16.40;98.70;;;;;;4997239;28;20038;-88
2021/09/16 07:29:20;;;;;;;3.17;1.30;;;16.40;98.70;;;;;;5003111;28;20033;-88
2021/09/16 07:31:47;;;;;;;3.83;1.35;;;16.50;98.80;;;;;;4996599;28;20458;-88
2021/09/16 07:34:14;;;;;;;2.40;1.23;;;16.50;98.80;;;;;;4985960;28;20045;-86
2021/09/16 07:36:53;;;;;;;2.97;1.20;;;16.60;98.90;;;;;;5008141;28;20034;-87
2021/09/16 07:39:20;;;;;;;3.33;1.50;;;16.60;98.90;;;;;;4999569;28;20030;-87
2021/09/16 07:41:58;;;;;;;5.28;1.52;;;16.70;98.70;;;;;;5011218;28;20022;-88
2021/09/16 07:44:42;;;;;;;3.85;1.50;;;16.70;98.70;;;;;;4994970;28;20480;-88
2021/09/16 07:51:08;;;;;;;4.90;1.90;;;16.80;98.40;;;;;;4988056;28;20033;-89
2021/09/16 07:53:54;;;;;;;3.20;1.60;;;16.90;98.60;;;;;;5005956;28;20022;-88
2021/09/16 07:56:20;;;;;;;4.75;1.60;;;16.90;98.50;;;;;;4998489;28;20018;-88
2021/09/16 07:58:46;;;;;;;5.38;1.80;;;17.00;98.70;;;;;;4983253;28;20033;-89
2021/09/16 08:01:12;;;;;;;5.07;1.88;;;17.00;98.70;;;;;;5000941;28;20391;-88
2021/09/16 08:03:39;;;;;;;4.35;2.10;;;17.10;98.80;;;;;;5015458;28;20036;-89
2021/09/16 08:06:05;;;;;;;4.18;2.20;;;17.20;98.90;;;;;;4994211;28;20587;-88
2021/09/16 08:08:31;;;;;;;6.47;1.83;;;17.20;98.90;;;;;;5015067;28;20029;-88
2021/09/16 08:10:57;;;;;;;6.07;1.80;;;17.30;98.90;;;;;;4999120;28;20029;-88
2021/09/16 08:13:24;;;;;;;5.00;1.90;;;17.40;98.80;;;;;;4982746;28;20033;-86
2021/09/16 08:15:56;;;;;;;7.85;1.90;;;17.40;98.80;;;;;;5005637;28;20079;-86
2021/09/16 08:18:24;;;;;;;4.15;1.90;;;17.50;98.80;;;;;;5003420;28;20053;-86
2021/09/16 08:20:50;;;;;;;3.58;1.45;;;17.60;98.70;;;;;;5009603;28;20052;-86
2021/09/16 08:23:21;;;;;;;6.70;1.88;;;17.60;98.80;;;;;;5003197;28;20475;-87
2021/09/16 08:25:47;;;;;;;5.13;1.38;;;17.70;98.80;;;;;;5012927;28;20034;-86
2021/09/16 08:28:13;;;;;;;3.30;1.30;;;17.80;98.80;;;;;;5007933;28;20022;-86
2021/09/16 08:30:42;;;;;;;4.65;1.25;;;17.80;98.80;;;;;;5012792;28;20049;-86
2021/09/16 08:33:08;;;;;;;2.47;1.23;;;17.90;98.80;;;;;;5008517;28;20084;-85
2021/09/16 08:35:34;;;;;;;3.75;1.30;;;17.90;98.80;;;;;;5012062;28;20033;-84
2021/09/16 08:38:00;;;;;;;4.53;1.58;;;18.00;98.70;;;;;;4998302;28;20076;-85
2021/09/16 08:40:26;;;;;;;3.97;1.40;;;18.10;99.00;;;;;;5011250;28;20113;-85
2021/09/16 08:42:52;;;;;;;3.05;1.42;;;18.10;98.70;;;;;;4995256;28;20026;-84
2021/09/16 08:45:20;;;;;;;3.38;1.42;;;18.20;98.70;;;;;;4994592;28;20034;-85
2021/09/16 08:47:49;;;;;;;5.63;1.70;;;18.30;98.80;;;;;;5011675;28;20459;-85
2021/09/16 08:50:17;;;;;;;3.63;1.50;;;18.40;98.70;;;;;;5015598;28;20034;-85
2021/09/16 08:52:45;;;;;;;3.95;1.30;;;18.40;98.50;;;;;;5011472;28;20026;-85
2021/09/16 08:55:13;;;;;;;2.65;1.30;;;18.50;98.50;;;;;;5013953;28;20183;-86
2021/09/16 08:57:42;;;;;;;1.80;1.00;;;18.50;98.40;;;;;;5002276;28;20053;-86
2021/09/16 09:00:17;;;;;;;3.97;1.13;;;18.60;98.50;;;;;;5022713;28;20107;-86
2021/09/16 09:02:48;;;;;;;2.13;0.88;;;18.70;98.40;;;;;;5003101;28;20049;-85
2021/09/16 09:05:14;;;;;;;;;;;18.80;98.30;;;;;;5006885;28;20030;-85
2021/09/16 09:07:46;;;;;;;3.13;1.30;;;18.80;97.90;;;;;;5014201;28;19912;-85
2021/09/16 09:10:41;;;;;;;2.25;1.55;;;18.90;97.80;;;;;;4983751;28;20391;-85
2021/09/16 09:13:11;;;;;;;4.18;1.58;;;18.90;97.30;;;;;;5010110;28;20018;-85
2021/09/16 09:15:39;;;;;;;3.20;1.10;;;19.00;97.60;;;;;;4997243;28;20025;-85
2021/09/16 09:18:18;;;;;;;3.58;1.35;;;19.10;97.70;;;;;;4996786;28;20145;-85
2021/09/16 09:21:02;;;;;;;4.45;1.60;;;19.10;97.70;;;;;;4995965;28;20548;-85
2021/09/16 09:23:39;;;;;;;4.28;1.30;;;19.20;97.30;;;;;;5030781;28;20022;-85
2021/09/16 09:26:24;;;;;;;4.30;1.25;;;19.30;97.70;;;;;;5005934;28;20068;-85
2021/09/16 09:28:57;;;;;;;5.00;1.35;;;19.30;97.60;;;;;;4996685;28;20018;-85
2021/09/16 09:31:25;;;;;;;4.13;1.55;;;19.40;97.60;;;;;;5002216;28;20464;-85
2021/09/16 09:33:51;;;;;;;3.38;1.35;;;19.50;97.60;;;;;;5013046;28;20380;-85
2021/09/16 09:36:20;;;;;;;2.83;1.30;;;19.50;97.30;;;;;;4994578;28;20074;-85
2021/09/16 09:38:50;;;;;;;4.20;1.83;;;19.60;97.50;;;;;;5013053;28;20108;-85
2021/09/16 09:41:36;;;;;;;3.78;1.30;;;19.70;97.10;;;;;;4998361;28;20026;-86
2021/09/16 09:44:20;;;;;;;3.50;1.38;;;19.80;97.40;;;;;;4995640;28;20494;-85
2021/09/16 09:46:52;;;;;;;2.92;1.35;;;19.90;97.40;;;;;;4979437;28;20087;-85
2021/09/16 09:49:23;;;;;;;5.07;1.50;;;19.90;97.50;;;;;;4995551;28;20118;-86
2021/09/16 09:51:58;;;;;;;4.88;1.55;;;20.00;97.40;;;;;;5001198;28;20529;-85
2021/09/16 09:54:29;;;;;;;2.47;1.05;;;20.10;97.10;;;;;;5026307;28;20026;-85
2021/09/16 09:56:58;;;;;;;3.42;1.27;;;20.20;97.20;;;;;;4996083;28;20080;-84
2021/09/16 09:59:25;;;;;;;3.50;1.33;;;20.30;97.20;;;;;;4997197;28;20053;-85
2021/09/16 10:02:03;;;;;;;4.03;1.15;;;20.40;97.30;;;;;;5007557;28;20037;-85
2021/09/16 10:04:31;;;;;;;3.53;1.20;;;20.50;97.10;;;;;;5007968;28;20029;-85
2021/09/16 10:07:00;;;;;;;3.38;1.20;;;20.60;96.90;;;;;;5004652;28;20610;-85
2021/09/16 10:09:27;;;;;;;4.97;1.60;;;20.70;95.70;;;;;;4998728;28;20061;-85
2021/09/16 10:11:55;;;;;;;2.42;1.00;;;20.70;96.20;;;;;;4996278;28;20057;-85
2021/09/16 10:14:21;;;;;;;4.80;1.55;;;20.80;96.10;;;;;;4992990;28;20025;-85
2021/09/16 10:16:48;;;;;;;2.28;1.00;;;20.90;96.00;;;;;;4978307;28;20376;-84
2021/09/16 10:19:14;;;;;;;2.00;1.08;;;21.00;96.20;;;;;;5010255;28;20046;-84
2021/09/16 10:21:40;;;;;;;2.22;1.10;;;21.10;96.20;;;;;;4965232;28;20037;-84
2021/09/16 10:24:08;;;;;;;2.90;1.30;;;21.20;95.90;;;;;;5002204;28;20461;-85
2021/09/16 10:26:50;;;;;;;2.85;1.35;;;21.30;95.70;;;;;;4994746;28;20026;-84
2021/09/16 10:29:28;;;;;;;3.22;1.25;;;21.40;94.90;;;;;;4995711;28;20030;-84
2021/09/16 10:32:19;;;;;;;2.20;1.20;;;21.40;95.50;;;;;;5010475;28;20057;-84
2021/09/16 10:34:48;;;;;;;3.20;1.13;;;21.50;95.50;;;;;;4980907;28;20041;-84
2021/09/16 10:37:19;;;;;;;2.92;1.13;;;21.50;95.20;;;;;;5000555;28;20033;-84
2021/09/16 10:39:48;;;;;;;3.25;1.02;;;21.60;95.20;;;;;;5015413;28;20387;-84
2021/09/16 10:42:16;;;;;;;2.67;1.27;;;21.70;95.10;;;;;;4996240;28;20509;-85
2021/09/16 10:44:42;;;;;;;2.83;1.10;;;21.80;94.30;;;;;;5005028;28;20029;-84
2021/09/16 10:47:24;;;;;;;3.92;1.17;;;21.80;94.40;;;;;;5006219;28;20032;-85
2021/09/16 10:49:51;;;;;;;2.72;1.20;;;21.90;94.00;;;;;;5015129;28;20108;-84
2021/09/16 10:52:20;;;;;;;3.63;1.55;;;21.90;93.20;;;;;;4998569;28;20037;-85
2021/09/16 10:54:52;;;;;;;3.70;1.45;;;22.00;94.00;;;;;;5017666;28;20033;-85
2021/09/16 10:57:34;;;;;;;2.58;0.90;;;22.10;94.10;;;;;;5015061;28;20411;-85
2021/09/16 11:00:00;;;;;;;2.70;1.38;;;22.10;93.50;;;;;;5001609;28;20046;-85
2021/09/16 11:02:47;;;;;;;4.57;1.40;;;22.20;93.50;;;;;;4982521;28;20030;-85
2021/09/16 11:05:21;;;;;;;3.10;1.30;;;22.30;93.30;;;;;;5003716;28;20033;-85
2021/09/16 11:07:50;;;;;;;2.35;1.00;;;22.30;93.30;;;;;;5033932;23;20049;-85
2021/09/16 11:10:16;;;;;;;2.95;1.30;;;22.30;93.40;;;;;;5037555;28;20456;-85
2021/09/16 11:12:58;;;;;;;2.33;1.08;;;22.40;93.00;;;;;;5037707;28;20052;-85
2021/09/16 11:15:29;;;;;;;5.97;1.63;;;22.50;93.00;;;;;;5023362;28;20017;-85
2021/09/16 11:18:09;;;;;;;2.92;1.00;;;22.50;92.70;;;;;;5037210;28;20037;-85
2021/09/16 11:20:37;;;;;;;1.92;1.00;;;22.50;92.00;;;;;;5025040;28;20081;-85
2021/09/16 11:23:03;;;;;;;2.97;1.30;;;22.60;92.30;;;;;;4998800;28;20052;-85
2021/09/16 11:25:37;;;;;;;3.75;1.33;;;22.70;92.40;;;;;;5037151;28;20481;-85
2021/09/16 11:28:05;;;;;;;1.70;0.80;;;22.70;92.20;;;;;;5055962;28;20032;-84
2021/09/16 11:30:31;;;;;;;3.10;1.10;;;22.70;92.00;;;;;;5020524;28;20041;-85
2021/09/16 11:33:11;;;;;;;3.55;1.23;;;22.80;92.10;;;;;;5017450;28;20052;-85
2021/09/16 11:35:37;;;;;;;4.28;1.48;;;22.80;91.30;;;;;;5033087;28;20374;-85
2021/09/16 11:38:05;;;;;;;3.05;1.40;;;22.80;91.20;;;;;;5017679;28;20122;-84
2021/09/16 11:40:37;;;;;;;2.80;1.10;;;22.80;91.30;;;;;;5049169;28;20155;-85
2021/09/16 11:43:05;;;;;;;3.20;1.05;;;22.90;90.90;;;;;;5017046;28;20045;-85
2021/09/16 11:45:36;;;;;;;2.33;1.23;;;22.90;90.90;;;;;;5029968;28;20426;-85
2021/09/16 11:48:23;;;;;;;1.80;1.17;;;23.00;91.10;;;;;;5037258;28;20033;-85
2021/09/16 11:50:58;;;;;;;3.00;1.50;;;23.10;89.90;;;;;;5037650;28;20051;-85
2021/09/16 11:53:30;;;;;;;4.90;1.88;;;23.10;90.00;;;;;;5055777;28;20068;-85
2021/09/16 11:55:59;;;;;;;2.90;1.20;;;23.10;89.00;;;;;;5037442;28;20040;-85
2021/09/16 11:58:33;;;;;;;2.50;1.10;;;23.10;87.70;;;;;;5048412;28;20079;-85
2021/09/16 12:01:19;;;;;;;3.00;1.95;;;23.10;87.00;;;;;;5012043;28;20042;-85
2021/09/16 12:03:49;;;;;;;3.58;1.20;;;23.20;87.80;;;;;;5036520;28;20040;-86
2021/09/16 12:06:16;;;;;;;2.80;1.30;;;23.20;87.70;;;;;;5029855;28;20040;-86
2021/09/16 12:08:52;;;;;;;3.85;1.58;;;23.20;87.50;;;;;;5042751;28;20104;-85
2021/09/16 12:11:19;;;;;;;4.72;1.65;;;23.30;87.30;;;;;;5035598;28;20033;-86
2021/09/16 12:13:56;;;;;;;2.60;1.42;;;23.30;86.90;;;;;;5035369;28;20020;-85
2021/09/16 12:16:31;;;;;;;3.22;1.38;;;23.30;87.30;;;;;;5036494;28;20020;-86
2021/09/16 12:19:07;;;;;;;3.97;1.42;;;23.30;88.00;;;;;;5036005;28;20109;-85
2021/09/16 12:21:44;;;;;;;3.83;1.50;;;23.30;87.30;;;;;;5021038;28;20021;-85
2021/09/16 12:24:19;;;;;;;3.08;1.50;;;23.40;86.20;;;;;;5037214;28;20036;-85
2021/09/16 12:26:51;;;;;;;2.75;1.27;;;23.40;87.20;;;;;;5053257;28;20090;-85
2021/09/16 12:29:20;;;;;;;3.22;1.30;;;23.40;87.80;;;;;;5021115;28;20497;-85
2021/09/16 12:31:54;;;;;;;2.13;1.25;;;23.50;87.10;;;;;;5025053;28;20093;-85
2021/09/16 12:34:20;;;;;;;2.85;1.20;;;23.50;84.40;;;;;;5031208;28;20021;-86
2021/09/16 12:37:00;;;;;;;2.88;1.30;;;23.60;84.90;;;;;;5036231;28;20021;-85
2021/09/16 12:39:28;;;;;;;1.23;1.00;;;23.60;83.10;;;;;;5025484;28;20487;-85
2021/09/16 12:42:04;;;;;;;4.05;1.35;;;23.60;84.50;;;;;;5033515;28;20272;-86
2021/09/16 12:44:35;;;;;;;1.70;1.02;;;23.70;85.20;;;;;;5054038;28;20459;-86
2021/09/16 12:47:15;;;;;;;3.63;1.10;;;23.70;85.90;;;;;;5020920;28;20037;-86
2021/09/16 12:49:51;;;;;;;2.45;1.20;;;23.80;84.90;;;;;;5031154;28;20386;-85
2021/09/16 12:52:16;;;;;;;4.85;1.10;;;23.80;85.40;;;;;;5035911;28;20032;-86
2021/09/16 12:54:47;;;;;;;3.28;1.27;;;23.90;84.90;;;;;;5035584;28;20017;-86
2021/09/16 12:57:15;;;;;;;2.35;1.30;;;23.90;82.60;;;;;;5022812;28;20111;-85
2021/09/16 12:59:52;;;;;;;2.47;1.13;;;23.90;82.20;;;;;;5036077;28;20053;-86
2021/09/16 13:02:21;;;;;;;2.90;1.23;;;23.90;82.90;;;;;;5016535;28;20021;-86